Terminal Aerodrome Forecast
Issued by NWS

Home | Current Version | Previous Version | Text Only | Print | Product List | Glossary On
Versions: 1 2 3 4 5 6 7 8 9 10 11 12 13
000
FTUS42 TJSJ 312300 RRA
TAFJSJ
TAF
TJSJ 312340Z 0100/0124 08007KT P6SM FEW024 SCT050
     FM011430 07013KT P6SM SCT030 SCT050
     FM012200 08006KT P6SM FEW030 SCT070=

USA.gov is the U.S. government's official web portal to all federal, state and local government web resources and services.